DW7880 Acharnes GR current weather conditions

sailwx.info

Wind from 256

Air temperature 11.1° C
Dewpoint 7.6° C

Last reported at 2018-Jan-20 22:06 UTC.
Time now 2018-Jan-20 23:07 UTC

Location: N 38°05' E 023°43'.
View on Google Maps.

See reports from other nearby stations

  
Tides and Currents Weather Stations Pressure Air Temp Water Temp Dewpoint Dewpoint Depression Visibility Wind Speed Wind Dir Waves Ship Positions
date/time (UTC)wind fromknots sea level pressurealtimeterstation pressurevisibilityair tempwater tempwave heightnotes
2018-Jan-20 22:06 256 11.1
2018-Jan-20 21:57 355 0 gusting 1 11.1
2018-Jan-20 21:30 311 11.1
2018-Jan-20 21:03 214 2 gusting 3 11.7
2018-Jan-20 20:54 284 0 gusting 3 11.7
2018-Jan-20 20:36 11.7
2018-Jan-20 20:27 11.7
2018-Jan-20 20:18 270 11.7
2018-Jan-20 20:00 309 1 gusting 3 11.7
2018-Jan-20 19:51 310 1 gusting 3 11.7
2018-Jan-20 19:42 11.7
2018-Jan-20 19:33 11.7
2018-Jan-20 19:24 284 0 gusting 3 12.2
2018-Jan-20 19:15 297 1 gusting 4 11.7
2018-Jan-20 19:06 302 0 gusting 3 11.7
2018-Jan-20 18:57 280 11.7
2018-Jan-20 18:48 294 0 gusting 3 11.7
2018-Jan-20 18:39 280 0 gusting 3 12.2
2018-Jan-20 18:30 279 1 gusting 3 12.2
2018-Jan-20 18:12 259 1 gusting 4 12.2
2018-Jan-20 17:45 12.8
2018-Jan-20 17:27 251 0 gusting 4 12.8
2018-Jan-20 17:18 236 2 gusting 6 12.8
2018-Jan-20 17:00 262 1 gusting 5 12.8
2018-Jan-20 16:15 213 1 gusting 6 13.3
2018-Jan-20 16:06 224 1 gusting 6 13.3
2018-Jan-20 15:57 214 3 gusting 9 13.3
2018-Jan-20 15:48 222 2 gusting 6 13.3
2018-Jan-20 15:39 198 1 gusting 6 13.3
2018-Jan-20 15:30 188 1 gusting 6 13.3
2018-Jan-20 15:21 169 0 gusting 3 13.3
2018-Jan-20 15:12 157 1 gusting 6 13.3
2018-Jan-20 14:54 179 1 gusting 6 13.9
2018-Jan-20 14:36 164 13.9
2018-Jan-20 14:27 175 0 gusting 5 13.9
2018-Jan-20 14:18 175 1 gusting 6 13.9
2018-Jan-20 14:09 182 0 gusting 5 14.4
2018-Jan-20 14:00 178 2 gusting 8 14.4
2018-Jan-20 13:33 209 2 gusting 6 14.4
2018-Jan-20 13:24 198 3 gusting 6 14.4
2018-Jan-20 12:57 195 1 gusting 5 15.0
2018-Jan-20 12:48 214 3 gusting 8 15.0
2018-Jan-20 12:39 227 4 gusting 8 15.6
2018-Jan-20 12:30 242 4 gusting 8 15.6
2018-Jan-20 12:21 228 4 gusting 6 16.1
2018-Jan-20 12:12 212 4 gusting 8 15.6
2018-Jan-20 12:03 230 5 gusting 11 15.6
2018-Jan-20 11:54 236 4 gusting 8 15.6
2018-Jan-20 11:45 234 3 gusting 9 15.6
2018-Jan-20 11:36 222 4 gusting 10 15.6
2018-Jan-20 10:51 285 4 gusting 7 15.0
2018-Jan-20 10:42 231 4 gusting 9 15.6
2018-Jan-20 10:24 185 0 gusting 3 14.4
2018-Jan-20 10:15 217 1 gusting 5 14.4
2018-Jan-20 09:57 044 0 gusting 3 13.9
2018-Jan-20 09:48 155 13.3
2018-Jan-20 09:39 222 12.8
2018-Jan-20 09:21 12.2
2018-Jan-20 08:54 12.2
2018-Jan-20 08:45 11.7
2018-Jan-20 07:42 11.7
2018-Jan-20 07:33 11.1
2018-Jan-20 07:24 10.6
2018-Jan-20 07:15 037 10.0
2018-Jan-20 07:06 9.4
2018-Jan-20 06:48 313 1 gusting 3 9.4
2018-Jan-20 06:39 319 1 gusting 4 9.4
2018-Jan-20 05:45 286 8.9
2018-Jan-20 05:27 224 0 gusting 3 8.9
2018-Jan-20 05:18 286 2 gusting 5 9.4
2018-Jan-20 04:51 302 2 gusting 6 9.4
2018-Jan-20 04:33 315 3 gusting 6 9.4
2018-Jan-20 04:15 321 2 gusting 4 9.4
2018-Jan-20 03:57 311 1 gusting 4 9.4
2018-Jan-20 03:39 313 0 gusting 3 9.4
2018-Jan-20 03:21 316 1 gusting 3 9.4
2018-Jan-20 03:12 296 8.9
2018-Jan-20 03:03 314 0 gusting 3 9.4
2018-Jan-20 02:54 314 9.4
2018-Jan-20 02:36 8.9
2018-Jan-20 02:27 9.4
2018-Jan-20 02:18 9.4
2018-Jan-20 02:00 9.4
2018-Jan-20 01:33 210 9.4
2018-Jan-20 01:24 9.4
2018-Jan-20 00:57 9.4
2018-Jan-20 00:39 218 0 gusting 4 9.4
2018-Jan-20 00:30 212 8.9
2018-Jan-20 00:03 9.4
2018-Jan-19 23:45 210 9.4
2018-Jan-19 23:36 191 1 gusting 3 9.4
2018-Jan-19 23:27 222 1 gusting 4 10.0
2018-Jan-19 23:18 225 1 gusting 3 9.4
2018-Jan-19 23:09 225 9.4
2018-Jan-19 23:00 10.0
2018-Jan-19 22:51 273 1 gusting 5 10.6
2018-Jan-19 22:42 251 3 gusting 6 10.6
2018-Jan-19 21:48 259 0 gusting 6 8.3
2018-Jan-19 21:30 8.3
2018-Jan-19 21:21 001 8.3
2018-Jan-19 20:45 272 0 gusting 3 9.4
2018-Jan-19 20:27 270 0 gusting 3 8.9
2018-Jan-19 20:09 303 1 gusting 4 9.4
2018-Jan-19 19:42 317 2 gusting 4 9.4
2018-Jan-19 19:33 305 2 gusting 3 9.4
2018-Jan-19 19:06 309 2 gusting 3 9.4
2018-Jan-19 18:57 302 1 gusting 4 9.4
2018-Jan-19 18:48 314 9.4
2018-Jan-19 18:21 289 0 gusting 4 9.4
2018-Jan-19 18:12 288 0 gusting 4 9.4
2018-Jan-19 18:03 285 0 gusting 3 9.4
2018-Jan-19 17:36 325 1 gusting 3 9.4
2018-Jan-19 17:27 279 0 gusting 3 9.4
2018-Jan-19 17:09 301 10.0
2018-Jan-19 16:33 225 10.0
2018-Jan-19 16:24 225 10.6
2018-Jan-19 16:15 194 0 gusting 3 10.6
2018-Jan-19 16:06 219 0 gusting 3 11.1
2018-Jan-19 15:57 225 2 gusting 5 11.1
2018-Jan-19 15:39 237 2 gusting 6 12.2
2018-Jan-19 15:03 208 6 gusting 10 13.3
2018-Jan-19 14:54 229 6 gusting 12 13.3
2018-Jan-19 14:09 243 6 gusting 9 14.4
2018-Jan-19 13:33 231 6 gusting 13 14.4
2018-Jan-19 13:24 237 6 gusting 13 14.4
2018-Jan-19 13:15 246 7 gusting 13 14.4
2018-Jan-19 12:48 224 6 gusting 14 14.4
2018-Jan-19 12:39 232 8 gusting 14 14.4
2018-Jan-19 12:21 237 8 gusting 17 14.4
2018-Jan-19 11:27 219 6 gusting 13 15.0
2018-Jan-19 10:51 241 6 gusting 13 14.4
2018-Jan-19 10:24 225 5 gusting 11 14.4
2018-Jan-19 10:06 223 6 gusting 13 13.9
2018-Jan-19 09:48 214 5 gusting 9 13.3
2018-Jan-19 09:39 234 4 gusting 8 13.3
2018-Jan-19 09:12 256 5 gusting 11 12.2
2018-Jan-19 08:45 235 4 gusting 10 11.7
2018-Jan-19 08:27 226 3 gusting 6 11.1
2018-Jan-19 07:33 029 0 gusting 5 6.7
2018-Jan-19 07:15 135 6.1
2018-Jan-19 07:06 044 5.6
2018-Jan-19 06:57 5.0
2018-Jan-19 06:48 289 5.0
2018-Jan-19 06:39 177 0 gusting 3 5.0
2018-Jan-19 06:12 357 0 gusting 2 3.9
2018-Jan-19 06:03 005 1 gusting 3 3.9
2018-Jan-19 05:54 004 1 gusting 4 3.9
2018-Jan-19 05:45 322 1 gusting 3 3.3
2018-Jan-19 05:36 210 0 gusting 3 2.8
2018-Jan-19 05:27 279 1 gusting 6 2.8
2018-Jan-19 05:09 099 0 gusting 2 2.8
2018-Jan-19 04:15 054 3.3
2018-Jan-19 03:48 063 0 gusting 3 3.3
2018-Jan-19 03:30 347 0 gusting 3 3.9
2018-Jan-19 03:21 030 0 gusting 3 3.9
2018-Jan-19 03:12 104 0 gusting 3 4.4
2018-Jan-19 03:03 327 2 gusting 4 4.4
2018-Jan-19 02:54 291 2 gusting 4 4.4
2018-Jan-19 02:36 316 4 gusting 9 5.0
2018-Jan-19 02:18 317 5 gusting 10 5.0
2018-Jan-19 02:00 309 5 gusting 9 5.0
2018-Jan-19 01:07 281 4 gusting 7 4.4
2018-Jan-19 00:58 285 4 gusting 6 3.9
2018-Jan-19 00:22 309 4 gusting 6 4.4
2018-Jan-18 23:55 322 3 gusting 6 3.9
2018-Jan-18 23:37 314 5 gusting 8 3.9
2018-Jan-18 23:28 314 4 gusting 8 4.4
2018-Jan-18 23:19 319 3 gusting 6 4.4
2018-Jan-18 23:10 283 3 gusting 5 4.4